Time;durP1;ratioP1;P1;durP2;ratioP2;P2;SDS_P1;SDS_P2;PMS_P1;PMS_P2;Temp;Humidity;BMP_temperature;BMP_pressure;BME280_temperature;BME280_humidity;BME280_pressure;Samples;Min_cycle;Max_cycle;Signal;HPM_P1;HPM_P2
2021/12/19 00:00:58;;;;;;;140.02;46.67;;;5.70;99.90;;;;;;5060343;28;20053;-73
2021/12/19 00:08:55;;;;;;;141.15;44.15;;;5.70;99.90;;;;;;5056684;28;20718;-71
2021/12/19 00:11:23;;;;;;;110.10;39.47;;;5.60;99.90;;;;;;5058562;28;20076;-73
2021/12/19 00:13:50;;;;;;;106.32;39.08;;;5.60;99.90;;;;;;5035465;28;20553;-72
2021/12/19 00:16:18;;;;;;;125.88;44.50;;;5.60;99.90;;;;;;5054686;28;20064;-74
2021/12/19 00:18:46;;;;;;;118.70;42.88;;;5.60;99.90;;;;;;5055231;28;20391;-73
2021/12/19 00:21:15;;;;;;;135.20;43.55;;;5.60;99.90;;;;;;5058286;28;20068;-72
2021/12/19 00:23:43;;;;;;;131.02;44.05;;;5.60;99.90;;;;;;5061311;28;20539;-73
2021/12/19 00:26:09;;;;;;;138.25;41.78;;;5.60;99.90;;;;;;5058355;28;20118;-72
2021/12/19 00:28:36;;;;;;;117.15;41.75;;;5.60;99.90;;;;;;5058688;28;20084;-72
2021/12/19 00:31:04;;;;;;;102.88;37.42;;;5.60;99.90;;;;;;5056943;28;20105;-72
2021/12/19 00:33:31;;;;;;;94.35;37.33;;;5.50;99.90;;;;;;5061293;28;20446;-73
2021/12/19 00:35:59;;;;;;;95.03;37.30;;;5.50;99.90;;;;;;5058399;28;20037;-73
2021/12/19 00:38:26;;;;;;;122.65;42.47;;;5.50;99.90;;;;;;5060451;28;20532;-72
2021/12/19 00:40:53;;;;;;;119.03;42.40;;;5.50;99.90;;;;;;5059566;28;20055;-73
2021/12/19 00:44:08;;;;;;;106.45;39.75;;;5.50;99.90;;;;;;5064404;28;20052;-72
2021/12/19 00:46:12;;;;;;;103.32;34.58;;;5.50;99.90;;;;;;5049609;28;20071;-72
2021/12/19 00:48:44;;;;;;;110.28;37.97;;;5.50;99.90;;;;;;5058165;28;20053;-73
2021/12/19 00:51:15;;;;;;;107.07;38.88;;;5.50;99.90;;;;;;5058545;28;20102;-71
2021/12/19 00:53:46;;;;;;;99.68;36.72;;;5.50;99.90;;;;;;5060645;28;20052;-72
2021/12/19 00:56:13;;;;;;;74.75;30.17;;;5.50;99.90;;;;;;5058239;28;20128;-71
2021/12/19 00:58:41;;;;;;;72.13;30.42;;;5.50;99.90;;;;;;5060212;28;20032;-70
2021/12/19 01:01:10;;;;;;;80.38;31.33;;;5.50;99.90;;;;;;5058920;28;20049;-71
2021/12/19 01:03:37;;;;;;;97.13;36.03;;;5.50;99.90;;;;;;5043500;28;20398;-72
2021/12/19 01:06:04;;;;;;;110.85;38.85;;;5.50;99.90;;;;;;5056988;28;20454;-73
2021/12/19 01:08:31;;;;;;;115.60;40.25;;;5.50;99.90;;;;;;5063574;28;20251;-74
2021/12/19 01:10:58;;;;;;;120.57;40.00;;;5.50;99.90;;;;;;5063453;28;20060;-75
2021/12/19 01:13:25;;;;;;;92.80;36.28;;;5.50;99.90;;;;;;5063488;28;20056;-73
2021/12/19 01:15:53;;;;;;;100.70;39.42;;;5.50;99.90;;;;;;5062764;28;20094;-73
2021/12/19 01:18:20;;;;;;;81.75;31.27;;;5.50;99.90;;;;;;5061397;28;20056;-72
2021/12/19 01:20:47;;;;;;;69.70;29.60;;;5.50;99.90;;;;;;5064196;28;20124;-74
2021/12/19 01:23:14;;;;;;;79.80;33.28;;;5.50;99.90;;;;;;5062241;28;20139;-72
2021/12/19 01:25:42;;;;;;;68.40;29.90;;;5.50;99.90;;;;;;5059375;28;20068;-75
2021/12/19 01:28:09;;;;;;;68.97;30.17;;;5.50;99.90;;;;;;5063060;28;20053;-72
2021/12/19 01:30:36;;;;;;;81.50;32.80;;;5.50;99.90;;;;;;5062638;28;20048;-75
2021/12/19 01:33:03;;;;;;;79.53;32.28;;;5.50;99.90;;;;;;5061862;28;20611;-73
2021/12/19 01:35:30;;;;;;;81.47;33.95;;;5.50;99.90;;;;;;5049157;28;20134;-73
2021/12/19 01:37:57;;;;;;;80.07;33.30;;;5.50;99.90;;;;;;5063417;28;20063;-74
2021/12/19 01:40:24;;;;;;;67.80;30.02;;;5.50;99.90;;;;;;5063317;28;20049;-74
2021/12/19 01:42:54;;;;;;;65.25;30.00;;;5.50;99.90;;;;;;5062057;28;20044;-72
2021/12/19 01:45:30;;;;;;;70.18;30.98;;;5.60;99.90;;;;;;5063087;28;20057;-73
2021/12/19 01:47:59;;;;;;;68.05;30.45;;;5.50;99.90;;;;;;5057473;28;20048;-75
2021/12/19 01:50:27;;;;;;;80.05;32.53;;;5.60;99.90;;;;;;5063325;28;20051;-75
2021/12/19 01:52:54;;;;;;;84.68;34.53;;;5.60;99.90;;;;;;5063646;28;20052;-75
2021/12/19 01:55:21;;;;;;;93.65;34.22;;;5.50;99.90;;;;;;5060641;28;20080;-75
2021/12/19 01:57:48;;;;;;;63.72;30.23;;;5.50;99.90;;;;;;5062371;28;20131;-73
2021/12/19 02:00:21;;;;;;;75.00;33.22;;;5.60;99.90;;;;;;5062711;28;20484;-71
2021/12/19 02:02:48;;;;;;;71.03;31.55;;;5.50;99.90;;;;;;5061390;28;20366;-73
2021/12/19 02:05:15;;;;;;;79.38;36.30;;;5.50;99.90;;;;;;5054509;28;20048;-72
2021/12/19 02:07:48;;;;;;;69.60;31.05;;;5.50;99.90;;;;;;5059011;28;20044;-73
2021/12/19 02:10:18;;;;;;;69.22;30.75;;;5.60;99.90;;;;;;5062543;28;20581;-71
2021/12/19 02:12:47;;;;;;;63.60;28.77;;;5.50;99.90;;;;;;5057020;28;20053;-72
2021/12/19 02:15:18;;;;;;;64.63;27.88;;;5.50;99.90;;;;;;5061068;28;20075;-72
2021/12/19 02:17:46;;;;;;;67.88;31.95;;;5.50;99.90;;;;;;5062503;28;20036;-71
2021/12/19 02:20:15;;;;;;;72.35;31.08;;;5.40;99.90;;;;;;5063079;28;20036;-72
2021/12/19 02:22:43;;;;;;;58.08;26.92;;;5.50;99.90;;;;;;5060919;28;20072;-73
2021/12/19 02:25:10;;;;;;;60.53;28.38;;;5.40;99.90;;;;;;5062068;28;20056;-72
2021/12/19 02:27:38;;;;;;;60.42;26.88;;;5.40;99.90;;;;;;5062608;28;20269;-73
2021/12/19 02:30:07;;;;;;;49.30;23.60;;;5.40;99.90;;;;;;5063004;28;20052;-74
2021/12/19 02:32:36;;;;;;;54.20;24.73;;;5.30;99.90;;;;;;5062928;28;20105;-74
2021/12/19 02:35:07;;;;;;;55.15;24.38;;;5.20;99.90;;;;;;5062222;28;20356;-72
2021/12/19 02:48:14;;;;;;;39.05;15.15;;;5.20;99.90;;;;;;5060658;28;19990;-75
2021/12/19 02:50:49;;;;;;;39.63;15.40;;;5.10;99.90;;;;;;5062022;28;20049;-71
2021/12/19 02:53:26;;;;;;;36.97;15.60;;;5.20;99.90;;;;;;5045763;28;20136;-73
2021/12/19 02:55:52;;;;;;;35.40;15.55;;;5.10;99.90;;;;;;5042350;28;20528;-73
2021/12/19 02:58:19;;;;;;;41.33;15.70;;;5.10;99.90;;;;;;5040846;28;20076;-74
2021/12/19 03:00:48;;;;;;;39.10;15.75;;;5.10;99.90;;;;;;5024983;28;20146;-75
2021/12/19 03:03:15;;;;;;;36.95;15.68;;;5.10;99.90;;;;;;5057104;28;20495;-72
2021/12/19 03:05:42;;;;;;;29.90;13.75;;;5.10;99.90;;;;;;5062952;28;20463;-72
2021/12/19 03:08:10;;;;;;;31.38;14.90;;;5.10;99.90;;;;;;5061950;28;20037;-71
2021/12/19 03:18:35;;;;;;;24.95;11.13;;;5.10;99.90;;;;;;5059428;28;20463;-72
2021/12/19 03:21:02;;;;;;;31.02;11.73;;;5.00;99.90;;;;;;5062131;28;20712;-73
2021/12/19 03:23:28;;;;;;;35.20;13.38;;;5.00;99.90;;;;;;5061536;28;20219;-75
2021/12/19 03:25:55;;;;;;;31.40;12.68;;;5.10;99.90;;;;;;5061312;28;20064;-73
2021/12/19 03:28:22;;;;;;;30.60;13.15;;;5.10;99.90;;;;;;5058158;28;20137;-73
2021/12/19 03:30:49;;;;;;;32.28;12.93;;;5.10;99.90;;;;;;5050268;28;20124;-75
2021/12/19 03:33:16;;;;;;;36.45;14.32;;;5.10;99.90;;;;;;5039457;28;20687;-74
2021/12/19 03:35:43;;;;;;;32.20;13.02;;;5.00;99.90;;;;;;5047083;28;20066;-74
2021/12/19 03:38:12;;;;;;;38.13;14.50;;;5.00;99.90;;;;;;5058355;28;20090;-73
2021/12/19 03:40:42;;;;;;;32.97;12.35;;;5.10;99.90;;;;;;5043311;28;20068;-73
2021/12/19 03:43:09;;;;;;;38.03;13.23;;;5.10;99.90;;;;;;5059661;28;20158;-73
2021/12/19 03:45:37;;;;;;;44.88;15.38;;;5.10;99.90;;;;;;5059187;28;20579;-73
2021/12/19 03:48:08;;;;;;;40.83;15.80;;;5.10;99.90;;;;;;5059685;28;20044;-72
2021/12/19 03:50:35;;;;;;;41.83;13.98;;;5.10;99.90;;;;;;5057981;28;20059;-73
2021/12/19 03:53:02;;;;;;;41.55;12.65;;;5.00;99.90;;;;;;5059470;28;20043;-72
2021/12/19 03:55:30;;;;;;;36.65;12.70;;;5.00;99.90;;;;;;5059947;28;20473;-73
2021/12/19 03:58:02;;;;;;;37.58;12.15;;;5.00;99.90;;;;;;5058831;28;20742;-74
2021/12/19 04:00:30;;;;;;;43.75;13.02;;;4.90;99.90;;;;;;5055066;28;20151;-73
2021/12/19 04:03:04;;;;;;;46.08;13.82;;;5.00;99.90;;;;;;5058487;28;20076;-72
2021/12/19 04:05:31;;;;;;;38.47;12.27;;;4.90;99.90;;;;;;5058460;28;20059;-73
2021/12/19 04:07:58;;;;;;;35.30;13.07;;;5.00;99.90;;;;;;5059075;28;20121;-72
2021/12/19 04:10:27;;;;;;;33.05;12.65;;;4.90;99.90;;;;;;5060130;28;20191;-72
2021/12/19 04:12:55;;;;;;;38.88;14.38;;;4.80;99.90;;;;;;5059407;28;20052;-73
2021/12/19 04:15:22;;;;;;;37.10;13.07;;;4.80;99.90;;;;;;5055899;28;20127;-73
2021/12/19 04:17:49;;;;;;;36.35;12.57;;;4.80;99.90;;;;;;5058323;28;20300;-73
2021/12/19 04:20:18;;;;;;;34.95;12.35;;;4.80;99.90;;;;;;5057811;28;20090;-74
2021/12/19 04:22:47;;;;;;;16.08;7.05;;;4.90;99.90;;;;;;5059397;28;20044;-74
2021/12/19 04:25:14;;;;;;;16.38;6.53;;;4.80;99.90;;;;;;5058902;28;20056;-72
2021/12/19 04:27:41;;;;;;;13.95;6.18;;;4.80;99.90;;;;;;5060290;28;20048;-73
2021/12/19 04:30:12;;;;;;;13.90;6.22;;;4.70;99.90;;;;;;5088511;22;20376;-80
2021/12/19 04:32:43;;;;;;;14.00;5.32;;;4.70;99.90;;;;;;4995895;28;20099;-79
2021/12/19 04:35:11;;;;;;;10.68;4.32;;;4.70;99.90;;;;;;4996129;28;20365;-78
2021/12/19 04:52:01;;;;;;;7.72;2.92;;;4.60;99.90;;;;;;4976078;28;20054;-80
2021/12/19 04:57:20;;;;;;;11.95;5.00;;;4.60;99.90;;;;;;4989551;28;20053;-80
2021/12/19 05:00:05;;;;;;;13.88;4.72;;;4.60;99.90;;;;;;4984643;28;20557;-79
2021/12/19 05:16:08;;;;;;;12.40;3.78;;;4.60;99.90;;;;;;4977247;28;19928;-80
2021/12/19 05:18:38;;;;;;;14.48;5.28;;;4.60;99.90;;;;;;4973200;28;20070;-81
2021/12/19 05:21:15;;;;;;;18.38;5.60;;;4.60;99.90;;;;;;4961524;28;20042;-79
2021/12/19 05:26:14;;;;;;;19.23;6.32;;;4.70;99.90;;;;;;4992957;28;20370;-78
2021/12/19 05:28:41;;;;;;;19.45;6.93;;;4.70;99.90;;;;;;4977389;28;20127;-81
2021/12/19 05:31:08;;;;;;;20.05;6.50;;;4.70;99.90;;;;;;4978360;28;20076;-80
2021/12/19 05:33:35;;;;;;;15.65;5.43;;;4.70;99.90;;;;;;4978659;28;20053;-81
2021/12/19 05:47:11;;;;;;;;;;;4.70;99.90;;;;;;4972937;28;20291;-80
2021/12/19 05:49:38;;;;;;;17.33;5.35;;;4.70;99.90;;;;;;4978914;28;19937;-80
2021/12/19 05:52:05;;;;;;;16.42;6.13;;;4.60;99.90;;;;;;4977763;28;20057;-80
2021/12/19 05:54:31;;;;;;;16.65;5.95;;;4.70;99.90;;;;;;4975887;28;20039;-79
2021/12/19 05:56:59;;;;;;;18.85;6.13;;;4.70;99.90;;;;;;4975211;28;20137;-80
2021/12/19 05:59:26;;;;;;;14.88;5.13;;;4.70;99.90;;;;;;4978089;28;20232;-81
2021/12/19 06:01:52;;;;;;;19.27;6.47;;;4.60;99.90;;;;;;4978923;28;20049;-80
2021/12/19 06:04:19;;;;;;;17.50;6.20;;;4.70;99.90;;;;;;4979934;28;20042;-80
2021/12/19 06:06:46;;;;;;;20.67;6.80;;;4.70;99.90;;;;;;4962893;28;20046;-80
2021/12/19 06:09:13;;;;;;;25.75;7.53;;;4.60;99.90;;;;;;4981387;28;20319;-81
2021/12/19 06:11:40;;;;;;;21.15;7.35;;;4.70;99.90;;;;;;4979573;28;20518;-80
2021/12/19 06:14:08;;;;;;;26.48;7.75;;;4.70;99.90;;;;;;4981956;28;20047;-81
2021/12/19 06:16:35;;;;;;;28.70;7.80;;;4.70;99.90;;;;;;4966084;28;20361;-81
2021/12/19 06:19:02;;;;;;;28.55;7.45;;;4.70;99.90;;;;;;4979012;28;20050;-80
2021/12/19 06:21:29;;;;;;;21.02;5.95;;;4.70;99.90;;;;;;4979345;28;20058;-79
2021/12/19 06:23:56;;;;;;;23.33;5.85;;;4.70;99.90;;;;;;4980548;28;20129;-81
2021/12/19 06:26:23;;;;;;;25.00;7.00;;;4.60;99.90;;;;;;4979419;28;20055;-78
2021/12/19 06:28:50;;;;;;;16.52;5.13;;;4.60;99.90;;;;;;4978313;28;20119;-78
2021/12/19 06:31:17;;;;;;;20.17;6.22;;;4.60;99.90;;;;;;4963242;28;20698;-78
2021/12/19 06:33:44;;;;;;;19.13;5.55;;;4.50;99.90;;;;;;4979980;28;20410;-79
2021/12/19 06:36:11;;;;;;;22.75;8.60;;;4.60;99.90;;;;;;4979312;28;20061;-79
2021/12/19 06:38:38;;;;;;;11.60;3.95;;;4.60;99.90;;;;;;4979302;28;20047;-79
2021/12/19 06:41:05;;;;;;;19.35;5.85;;;4.60;99.90;;;;;;4978644;28;20489;-78
2021/12/19 06:43:33;;;;;;;20.85;6.35;;;4.60;99.90;;;;;;4962209;28;20094;-78
2021/12/19 06:45:59;;;;;;;23.98;6.35;;;4.60;99.90;;;;;;4994088;28;20061;-77
2021/12/19 06:48:26;;;;;;;16.67;6.30;;;4.60;99.90;;;;;;4961210;28;20146;-78
2021/12/19 06:50:53;;;;;;;24.08;6.25;;;4.60;99.90;;;;;;4978398;28;20137;-78
2021/12/19 06:53:20;;;;;;;18.58;6.03;;;4.60;99.90;;;;;;4977873;28;20471;-79
2021/12/19 06:55:47;;;;;;;20.88;6.50;;;4.60;99.90;;;;;;4994670;28;20050;-77
2021/12/19 06:58:14;;;;;;;18.65;5.50;;;4.60;99.90;;;;;;4979440;28;20172;-78
2021/12/19 07:00:41;;;;;;;18.75;5.60;;;4.60;99.90;;;;;;4978106;28;20108;-80
2021/12/19 07:03:10;;;;;;;13.00;5.70;;;4.60;99.90;;;;;;4983494;28;20086;-78
2021/12/19 07:05:37;;;;;;;16.48;5.75;;;4.60;99.90;;;;;;4977526;28;20302;-79
2021/12/19 07:08:04;;;;;;;20.42;6.90;;;4.60;99.90;;;;;;4976413;28;20042;-78
2021/12/19 07:10:32;;;;;;;20.35;5.70;;;4.60;99.90;;;;;;4972647;28;20066;-79
2021/12/19 07:12:59;;;;;;;33.75;7.68;;;4.60;99.90;;;;;;4974888;28;20647;-80
2021/12/19 07:15:27;;;;;;;101.60;11.25;;;4.60;99.90;;;;;;4977706;28;20596;-78
2021/12/19 07:17:55;;;;;;;17.67;5.38;;;4.60;99.90;;;;;;4976662;28;20046;-79
2021/12/19 07:20:22;;;;;;;16.40;5.13;;;4.60;99.90;;;;;;4961181;28;20054;-79
2021/12/19 07:22:49;;;;;;;19.35;5.50;;;4.60;99.90;;;;;;4975848;28;20293;-79
2021/12/19 07:25:16;;;;;;;17.55;5.55;;;4.60;99.90;;;;;;4973910;28;20205;-80
2021/12/19 07:27:42;;;;;;;18.90;5.88;;;4.60;99.90;;;;;;4977470;28;20513;-78
2021/12/19 07:30:10;;;;;;;14.88;5.00;;;4.60;99.90;;;;;;4979312;28;20112;-80
2021/12/19 07:32:38;;;;;;;25.10;6.07;;;4.60;99.90;;;;;;4978499;28;20104;-79
2021/12/19 07:35:21;;;;;;;22.35;6.97;;;4.60;99.90;;;;;;4978120;28;20663;-79
2021/12/19 07:37:50;;;;;;;20.58;5.45;;;4.50;99.90;;;;;;4971730;28;20080;-80
2021/12/19 07:40:19;;;;;;;23.20;6.25;;;4.60;99.90;;;;;;4987858;28;20556;-79
2021/12/19 07:42:47;;;;;;;18.40;5.30;;;4.50;99.90;;;;;;4977649;28;20119;-79
2021/12/19 07:45:16;;;;;;;16.70;5.15;;;4.60;99.90;;;;;;4995411;28;20084;-80
2021/12/19 07:47:44;;;;;;;17.20;4.80;;;4.50;99.90;;;;;;4977760;28;20084;-78
2021/12/19 07:50:12;;;;;;;16.60;5.85;;;4.50;99.90;;;;;;4972664;28;20410;-78
2021/12/19 07:52:39;;;;;;;17.70;4.50;;;4.50;99.90;;;;;;4978910;28;20054;-80
2021/12/19 07:55:07;;;;;;;15.15;4.32;;;4.50;99.90;;;;;;4977554;28;20281;-78
2021/12/19 07:57:34;;;;;;;13.45;4.97;;;4.40;99.90;;;;;;4978225;28;20095;-77
2021/12/19 08:00:01;;;;;;;13.55;4.22;;;4.40;99.90;;;;;;4980301;28;20259;-78
2021/12/19 08:02:38;;;;;;;17.30;4.80;;;4.40;99.90;;;;;;4986404;28;20580;-79
2021/12/19 08:05:05;;;;;;;17.42;4.10;;;4.40;99.90;;;;;;4991337;28;20042;-81
2021/12/19 08:07:32;;;;;;;15.55;4.28;;;4.40;99.90;;;;;;4970088;28;20124;-78
2021/12/19 08:10:14;;;;;;;17.02;5.03;;;4.40;99.90;;;;;;4979512;28;20085;-78
2021/12/19 08:12:42;;;;;;;13.70;4.20;;;4.40;99.90;;;;;;4978034;28;20184;-78
2021/12/19 08:15:11;;;;;;;18.05;4.80;;;4.50;99.90;;;;;;4992665;28;20042;-78
2021/12/19 08:17:43;;;;;;;12.97;4.33;;;4.50;99.90;;;;;;4961867;28;20110;-77
2021/12/19 08:20:10;;;;;;;16.63;4.63;;;4.50;99.90;;;;;;4977448;28;20047;-78
2021/12/19 08:22:37;;;;;;;19.80;4.88;;;4.50;99.90;;;;;;4966838;28;20153;-78
2021/12/19 08:25:05;;;;;;;15.57;4.68;;;4.50;99.90;;;;;;4979453;28;20354;-77
2021/12/19 08:27:37;;;;;;;15.07;4.60;;;4.60;99.90;;;;;;4977006;28;20099;-78
2021/12/19 08:30:07;;;;;;;20.27;5.22;;;4.60;99.90;;;;;;4960599;28;20446;-80
2021/12/19 08:32:35;;;;;;;18.05;5.05;;;4.50;99.90;;;;;;4977014;28;20107;-80
2021/12/19 08:35:04;;;;;;;17.75;5.40;;;4.50;99.90;;;;;;4979292;28;20090;-80
2021/12/19 08:37:31;;;;;;;14.65;5.20;;;4.50;99.90;;;;;;4977098;28;20050;-80
2021/12/19 08:39:58;;;;;;;16.70;5.20;;;4.50;99.90;;;;;;5080812;28;20494;-81
2021/12/19 08:42:25;;;;;;;20.77;5.57;;;4.60;99.90;;;;;;4979929;28;20529;-79
2021/12/19 08:44:52;;;;;;;14.35;4.40;;;4.60;99.90;;;;;;4960699;28;20050;-81
2021/12/19 08:47:19;;;;;;;12.27;4.38;;;4.60;99.90;;;;;;4972058;28;20104;-81
2021/12/19 08:49:45;;;;;;;17.20;5.53;;;4.60;99.90;;;;;;4971936;28;20129;-78
2021/12/19 08:52:13;;;;;;;13.95;5.55;;;4.50;99.90;;;;;;4978744;28;20058;-80
2021/12/19 08:54:39;;;;;;;14.25;4.80;;;4.60;99.90;;;;;;4979250;28;20701;-81
2021/12/19 08:57:06;;;;;;;13.50;4.35;;;4.60;99.90;;;;;;4977866;28;20334;-81
2021/12/19 08:59:33;;;;;;;13.63;4.03;;;4.60;99.90;;;;;;4978639;28;20066;-80
2021/12/19 09:02:01;;;;;;;13.27;4.30;;;4.60;99.90;;;;;;4977724;28;20066;-79
2021/12/19 09:04:29;;;;;;;10.45;3.60;;;4.60;99.90;;;;;;4961157;28;20062;-79
2021/12/19 09:06:59;;;;;;;10.93;3.08;;;4.60;99.90;;;;;;4968417;28;20574;-80
2021/12/19 09:09:26;;;;;;;7.22;2.47;;;4.60;99.90;;;;;;4980313;28;20054;-81
2021/12/19 09:11:53;;;;;;;10.02;3.55;;;4.60;99.90;;;;;;4961194;28;20439;-80
2021/12/19 09:14:19;;;;;;;7.63;3.30;;;4.60;99.90;;;;;;4972653;28;20108;-81
2021/12/19 09:16:46;;;;;;;4.65;1.80;;;4.60;99.90;;;;;;4973600;28;20047;-79
2021/12/19 09:19:14;;;;;;;10.07;3.47;;;4.60;99.90;;;;;;4976032;28;20153;-81
2021/12/19 09:21:41;;;;;;;9.60;3.70;;;4.60;99.90;;;;;;4958586;28;20138;-80
2021/12/19 09:24:08;;;;;;;9.43;3.67;;;4.60;99.90;;;;;;4970533;28;20078;-81
2021/12/19 09:26:36;;;;;;;9.85;4.63;;;4.70;99.90;;;;;;4981615;28;20499;-81
2021/12/19 09:29:03;;;;;;;7.93;3.75;;;4.70;99.90;;;;;;4981120;28;20463;-81
2021/12/19 09:31:30;;;;;;;12.38;4.47;;;4.80;99.90;;;;;;4981753;28;20077;-80
2021/12/19 09:33:57;;;;;;;27.73;6.72;;;4.70;99.90;;;;;;4982444;28;20069;-80
2021/12/19 09:36:25;;;;;;;17.15;6.00;;;4.80;99.90;;;;;;4982014;28;20088;-80
2021/12/19 09:38:52;;;;;;;27.67;6.53;;;4.80;99.90;;;;;;4968693;28;20082;-81
2021/12/19 09:41:28;;;;;;;16.45;5.32;;;4.80;99.90;;;;;;4978790;28;20050;-80
2021/12/19 09:44:05;;;;;;;12.40;4.28;;;4.80;99.90;;;;;;4977653;28;20119;-80
2021/12/19 09:46:42;;;;;;;12.45;5.05;;;4.80;99.90;;;;;;4979710;28;20046;-79
2021/12/19 09:49:12;;;;;;;9.27;3.83;;;4.80;99.90;;;;;;4971262;28;20251;-79
2021/12/19 09:51:39;;;;;;;11.98;4.07;;;4.80;99.90;;;;;;4962194;28;20062;-80
2021/12/19 09:54:08;;;;;;;9.93;3.38;;;4.80;99.90;;;;;;4964020;28;20288;-78
2021/12/19 09:56:36;;;;;;;12.82;4.65;;;4.80;99.90;;;;;;4978294;28;20606;-80
2021/12/19 09:59:07;;;;;;;9.77;4.13;;;4.80;99.90;;;;;;4980793;28;20054;-80
2021/12/19 10:01:34;;;;;;;11.63;4.43;;;4.80;99.90;;;;;;4980299;28;20061;-80
2021/12/19 10:04:01;;;;;;;9.38;3.83;;;4.90;99.90;;;;;;4981132;28;20104;-79
2021/12/19 10:06:30;;;;;;;10.13;4.45;;;4.80;99.90;;;;;;4976256;28;20057;-78
2021/12/19 10:09:15;;;;;;;11.52;5.85;;;4.80;99.90;;;;;;4979995;28;20252;-79
2021/12/19 10:11:54;;;;;;;10.00;3.67;;;4.80;99.90;;;;;;4995866;28;20050;-80
2021/12/19 10:14:25;;;;;;;10.10;3.60;;;4.80;99.90;;;;;;4978112;28;20042;-79
2021/12/19 10:16:53;;;;;;;6.95;2.92;;;4.90;99.90;;;;;;4986530;28;20042;-78
2021/12/19 10:19:20;;;;;;;8.02;2.88;;;4.90;99.90;;;;;;4979448;28;20095;-78
2021/12/19 10:21:47;;;;;;;9.43;3.55;;;4.90;99.90;;;;;;4980254;28;20058;-79
2021/12/19 10:24:40;;;;;;;7.95;2.97;;;4.90;99.90;;;;;;4980828;28;20092;-79
2021/12/19 10:27:08;;;;;;;6.30;2.58;;;4.90;99.90;;;;;;4980387;28;20054;-79
2021/12/19 10:29:42;;;;;;;6.70;3.05;;;4.90;99.90;;;;;;5014231;22;20269;-75
2021/12/19 10:32:10;;;;;;;10.43;3.63;;;4.80;99.90;;;;;;5009421;28;20041;-72
2021/12/19 10:34:37;;;;;;;8.20;3.05;;;4.80;99.90;;;;;;5028860;28;20060;-74
2021/12/19 10:37:31;;;;;;;11.63;4.35;;;4.80;99.90;;;;;;4990591;28;20104;-73
2021/12/19 10:40:02;;;;;;;9.48;4.25;;;4.80;99.90;;;;;;4978373;28;20050;-73
2021/12/19 10:42:34;;;;;;;9.13;4.18;;;4.80;99.90;;;;;;4991109;28;20042;-73
2021/12/19 10:47:47;;;;;;;11.13;4.60;;;4.90;99.90;;;;;;4991384;28;20046;-73
2021/12/19 10:50:14;;;;;;;11.98;4.95;;;5.00;99.90;;;;;;4989264;28;20065;-73
2021/12/19 10:52:41;;;;;;;10.15;4.40;;;4.90;99.90;;;;;;4994026;28;20112;-75
2021/12/19 10:55:11;;;;;;;10.05;5.35;;;5.00;99.90;;;;;;4991287;28;20053;-73
2021/12/19 10:57:42;;;;;;;11.13;4.57;;;4.90;99.90;;;;;;4961267;28;20060;-73
2021/12/19 11:00:22;;;;;;;10.93;4.88;;;4.90;99.90;;;;;;4975331;28;20743;-73
2021/12/19 11:02:48;;;;;;;13.38;5.75;;;4.90;99.90;;;;;;4958272;28;20060;-74
2021/12/19 11:05:37;;;;;;;9.13;4.57;;;4.90;99.90;;;;;;4983447;28;20920;-74
2021/12/19 11:08:06;;;;;;;8.50;3.95;;;5.00;99.90;;;;;;4975887;28;20056;-74
2021/12/19 11:10:34;;;;;;;28.70;14.48;;;5.00;99.90;;;;;;4980214;28;20759;-74
2021/12/19 11:13:14;;;;;;;10.82;5.40;;;4.90;99.90;;;;;;5009515;28;20052;-74
2021/12/19 11:15:43;;;;;;;10.68;4.00;;;4.90;99.90;;;;;;4994266;28;20037;-72
2021/12/19 11:18:10;;;;;;;11.95;4.80;;;5.00;99.90;;;;;;4993472;28;20061;-72
2021/12/19 11:20:37;;;;;;;12.43;4.65;;;5.00;99.90;;;;;;4995369;28;20143;-73
2021/12/19 11:23:04;;;;;;;10.68;4.38;;;5.00;99.90;;;;;;5013776;28;20693;-75
2021/12/19 11:25:31;;;;;;;12.20;5.13;;;5.00;99.90;;;;;;4995678;28;20046;-76
2021/12/19 11:28:01;;;;;;;11.43;5.18;;;5.00;99.90;;;;;;5001127;28;20100;-74
2021/12/19 11:30:28;;;;;;;13.70;5.57;;;5.00;99.90;;;;;;4995041;28;20045;-75
2021/12/19 11:33:23;;;;;;;14.82;6.15;;;5.00;99.90;;;;;;4977997;28;20045;-76
2021/12/19 11:35:53;;;;;;;10.90;5.33;;;5.00;99.90;;;;;;4994762;28;20660;-74
2021/12/19 11:38:22;;;;;;;10.32;5.25;;;5.00;99.90;;;;;;5002326;28;20294;-75
2021/12/19 11:40:51;;;;;;;13.50;5.70;;;5.00;99.90;;;;;;4994742;28;20061;-75
2021/12/19 11:43:19;;;;;;;13.77;5.22;;;4.90;99.90;;;;;;4978784;28;20578;-74
2021/12/19 11:45:58;;;;;;;10.73;5.20;;;4.90;99.90;;;;;;5013710;28;20053;-74
2021/12/19 11:48:30;;;;;;;13.40;5.45;;;4.90;99.90;;;;;;4984463;28;20156;-74
2021/12/19 11:51:15;;;;;;;13.07;6.28;;;4.90;99.90;;;;;;4994376;28;20049;-76
2021/12/19 11:53:43;;;;;;;15.52;6.95;;;4.90;99.90;;;;;;4994347;28;20057;-74
2021/12/19 11:56:11;;;;;;;18.30;7.88;;;4.90;99.90;;;;;;4993734;28;20837;-72
2021/12/19 11:58:45;;;;;;;14.73;5.80;;;4.90;99.90;;;;;;4994695;28;20506;-73
2021/12/19 12:01:19;;;;;;;17.17;7.05;;;5.00;99.90;;;;;;4979196;28;20779;-73
2021/12/19 12:03:50;;;;;;;14.43;6.82;;;5.00;99.90;;;;;;4979863;28;20042;-72
2021/12/19 12:06:17;;;;;;;15.50;7.43;;;5.00;99.90;;;;;;4996559;28;20653;-73
2021/12/19 12:09:03;;;;;;;19.33;7.43;;;5.00;99.90;;;;;;4994508;28;20043;-73
2021/12/19 12:11:31;;;;;;;13.23;5.72;;;5.00;99.90;;;;;;4994524;28;20144;-75
2021/12/19 12:14:21;;;;;;;13.23;6.47;;;5.00;99.90;;;;;;5012563;28;20049;-72
2021/12/19 12:16:54;;;;;;;16.10;6.75;;;5.00;99.90;;;;;;4993908;28;20041;-72
2021/12/19 12:19:54;;;;;;;17.58;6.95;;;5.00;99.90;;;;;;4994016;28;20056;-72
2021/12/19 12:22:38;;;;;;;16.48;7.38;;;5.00;99.90;;;;;;5010613;28;20045;-73
2021/12/19 12:25:08;;;;;;;17.10;6.40;;;5.00;99.90;;;;;;4994724;28;20049;-73
2021/12/19 12:27:37;;;;;;;21.67;8.43;;;5.00;99.90;;;;;;4976235;28;20076;-76
2021/12/19 12:30:08;;;;;;;18.38;8.23;;;5.10;99.90;;;;;;4978715;28;20099;-74
2021/12/19 12:32:44;;;;;;;17.88;8.23;;;5.10;99.90;;;;;;4994062;28;20049;-76
2021/12/19 12:35:13;;;;;;;18.88;8.55;;;5.10;99.90;;;;;;4994596;28;20107;-73
2021/12/19 12:37:42;;;;;;;17.48;7.85;;;5.10;99.90;;;;;;5015228;28;20591;-77
2021/12/19 12:40:29;;;;;;;13.75;6.97;;;5.10;99.90;;;;;;5031815;28;20052;-74
2021/12/19 12:43:18;;;;;;;20.85;8.38;;;5.10;99.90;;;;;;4974494;28;20137;-75
2021/12/19 12:46:06;;;;;;;18.52;7.78;;;5.00;99.90;;;;;;4979315;28;20452;-77
2021/12/19 12:48:42;;;;;;;25.63;9.73;;;5.10;99.90;;;;;;4985235;28;20120;-74
2021/12/19 12:51:28;;;;;;;24.80;9.57;;;5.00;99.90;;;;;;4975489;28;20045;-73
2021/12/19 12:53:58;;;;;;;20.95;8.88;;;5.00;99.90;;;;;;4955569;28;20042;-75
2021/12/19 12:56:36;;;;;;;19.58;9.10;;;5.00;99.90;;;;;;4964458;28;20050;-73
2021/12/19 12:59:05;;;;;;;16.58;8.35;;;5.00;99.90;;;;;;4969459;28;20046;-74
2021/12/19 13:01:41;;;;;;;20.15;8.77;;;5.00;99.90;;;;;;4989440;28;20042;-75
2021/12/19 13:04:13;;;;;;;18.65;8.00;;;5.10;99.90;;;;;;4990392;28;20516;-75
2021/12/19 13:07:04;;;;;;;16.77;7.50;;;5.10;99.90;;;;;;4985831;28;20392;-74
2021/12/19 13:09:50;;;;;;;15.02;6.88;;;5.10;99.90;;;;;;4977738;28;20116;-74
2021/12/19 13:12:27;;;;;;;17.83;8.15;;;5.10;99.90;;;;;;4999509;28;20045;-75
2021/12/19 13:14:57;;;;;;;17.33;7.97;;;5.10;99.90;;;;;;4971604;28;20714;-74
2021/12/19 13:17:32;;;;;;;20.75;9.15;;;5.10;99.90;;;;;;4977901;28;20439;-75
2021/12/19 13:20:03;;;;;;;19.30;8.45;;;5.10;99.90;;;;;;4998369;28;20052;-73
2021/12/19 13:22:36;;;;;;;23.25;10.20;;;5.10;99.90;;;;;;4977426;28;20042;-75
2021/12/19 13:25:12;;;;;;;17.77;8.65;;;5.20;99.90;;;;;;4962691;28;20122;-73
2021/12/19 13:27:45;;;;;;;21.35;9.70;;;5.20;99.90;;;;;;4977388;28;20151;-75
2021/12/19 13:30:29;;;;;;;20.40;8.40;;;5.20;99.90;;;;;;4964054;28;20048;-73
2021/12/19 13:32:57;;;;;;;20.33;9.75;;;5.20;99.90;;;;;;4998192;28;20374;-73
2021/12/19 13:35:28;;;;;;;23.92;10.77;;;5.10;99.90;;;;;;5015404;28;20556;-74
2021/12/19 13:38:02;;;;;;;21.67;9.85;;;5.20;99.90;;;;;;4997082;28;20075;-73
2021/12/19 13:40:37;;;;;;;22.15;10.18;;;5.20;99.90;;;;;;4995259;28;20156;-76
2021/12/19 13:43:11;;;;;;;20.48;8.55;;;5.20;99.90;;;;;;4979285;28;20160;-75
2021/12/19 13:45:49;;;;;;;20.05;8.77;;;5.20;99.90;;;;;;4978802;28;20055;-73
2021/12/19 13:48:19;;;;;;;18.58;7.88;;;5.20;99.90;;;;;;4960057;28;20260;-73
2021/12/19 13:50:58;;;;;;;20.05;8.93;;;5.20;99.90;;;;;;4964261;28;20535;-78
2021/12/19 13:53:27;;;;;;;25.70;9.05;;;5.30;99.90;;;;;;4981358;28;20058;-85
2021/12/19 13:55:57;;;;;;;23.75;9.57;;;5.20;99.90;;;;;;4979804;28;20054;-76
2021/12/19 13:58:32;;;;;;;22.33;8.65;;;5.20;99.90;;;;;;4997588;28;20066;-78
2021/12/19 14:01:08;;;;;;;;;;;5.30;99.90;;;;;;4965584;28;20472;-78
2021/12/19 14:03:44;;;;;;;20.20;8.32;;;5.20;99.90;;;;;;4997769;28;20545;-79
2021/12/19 14:06:13;;;;;;;23.67;9.68;;;5.30;99.90;;;;;;4985738;28;20232;-78
2021/12/19 14:08:41;;;;;;;18.38;7.70;;;5.30;99.90;;;;;;4993517;28;20085;-81